Terminal Aerodrome Forecast
Issued by NWS Wilmington, OH

Current Version | Previous Version | Graphics & Text | Print | Product List | Glossary On
Versions: 1 2 3 4 5 6 7 8 9 10 11 12 13 14 15 16 17
000
FTUS41 KILN 081700 RRA
TAFDAY
TAF
KDAY 081741Z 0818/0918 26012G24KT P6SM VCSH BKN025
     FM082000 26012G24KT P6SM BKN035
     FM082300 25008KT P6SM SCT040
     FM091500 29010KT P6SM BKN050=

USA.gov is the U.S. government's official web portal to all federal, state and local government web resources and services.